Time;durP1;ratioP1;P1;durP2;ratioP2;P2;SDS_P1;SDS_P2;PMS_P1;PMS_P2;Temp;Humidity;BMP_temperature;BMP_pressure;BME280_temperature;BME280_humidity;BME280_pressure;Samples;Min_cycle;Max_cycle;Signal;HPM_P1;HPM_P2
2021/10/19 00:00:14;;;;;;;13.82;12.30;;;;;;;;;;2081918;28;20184;-65
2021/10/19 00:01:14;;;;;;;14.98;13.38;;;;;;;;;;2081716;28;20176;-66
2021/10/19 00:02:15;;;;;;;15.13;12.82;;;;;;;;;;2082353;28;20219;-65
2021/10/19 00:03:15;;;;;;;16.30;12.73;;;;;;;;;;2085263;28;20167;-66
2021/10/19 00:04:15;;;;;;;16.27;13.85;;;;;;;;;;2085602;28;20338;-64
2021/10/19 00:05:15;;;;;;;15.95;12.85;;;;;;;;;;2084911;28;20206;-66
2021/10/19 00:06:15;;;;;;;15.93;12.38;;;;;;;;;;2085618;28;20203;-66
2021/10/19 00:07:16;;;;;;;16.02;13.07;;;;;;;;;;2084941;28;20168;-66
2021/10/19 00:08:16;;;;;;;14.77;12.77;;;;;;;;;;2085364;28;20665;-66
2021/10/19 00:09:16;;;;;;;17.55;13.15;;;;;;;;;;2087458;22;20216;-52
2021/10/19 00:10:17;;;;;;;16.23;13.05;;;;;;;;;;2077171;28;20258;-52
2021/10/19 00:11:17;;;;;;;13.35;11.57;;;;;;;;;;2092597;28;20175;-51
2021/10/19 00:12:17;;;;;;;14.10;12.52;;;;;;;;;;2094455;28;20187;-54
2021/10/19 00:13:17;;;;;;;14.73;12.90;;;;;;;;;;2083114;28;20167;-53
2021/10/19 00:14:17;;;;;;;13.65;11.95;;;;;;;;;;2082802;28;20184;-53
2021/10/19 00:15:18;;;;;;;13.75;11.88;;;;;;;;;;2078168;28;20176;-52
2021/10/19 00:16:19;;;;;;;13.40;11.80;;;;;;;;;;2078056;28;20211;-52
2021/10/19 00:17:20;;;;;;;13.95;12.43;;;;;;;;;;2079519;28;20554;-55
2021/10/19 00:18:20;;;;;;;14.70;12.23;;;;;;;;;;2080616;28;20254;-53
2021/10/19 00:19:20;;;;;;;13.70;12.20;;;;;;;;;;2080789;28;20200;-54
2021/10/19 00:20:20;;;;;;;14.52;12.02;;;;;;;;;;2076882;28;20522;-51
2021/10/19 00:21:21;;;;;;;14.90;11.77;;;;;;;;;;2083645;28;20208;-51
2021/10/19 00:22:21;;;;;;;15.20;12.65;;;;;;;;;;2094335;28;20170;-53
2021/10/19 00:23:21;;;;;;;14.73;12.25;;;;;;;;;;2093194;28;20219;-53
2021/10/19 00:24:21;;;;;;;14.65;12.60;;;;;;;;;;2088954;28;20280;-52
2021/10/19 00:25:22;;;;;;;15.13;12.07;;;;;;;;;;2094218;28;20217;-53
2021/10/19 00:26:22;;;;;;;14.60;13.10;;;;;;;;;;2092421;28;20195;-55
2021/10/19 00:27:22;;;;;;;13.70;11.90;;;;;;;;;;2093442;28;20643;-52
2021/10/19 00:28:22;;;;;;;14.02;12.52;;;;;;;;;;2092381;28;20298;-52
2021/10/19 00:29:23;;;;;;;13.93;12.02;;;;;;;;;;2084271;28;20199;-53
2021/10/19 00:30:23;;;;;;;19.92;13.52;;;;;;;;;;2086259;28;20183;-52
2021/10/19 00:31:23;;;;;;;15.25;12.05;;;;;;;;;;2085523;28;20828;-55
2021/10/19 00:32:23;;;;;;;15.00;11.77;;;;;;;;;;2083505;28;20191;-54
2021/10/19 00:33:24;;;;;;;13.68;11.68;;;;;;;;;;2080909;28;20180;-53
2021/10/19 00:34:24;;;;;;;13.63;11.63;;;;;;;;;;2080368;28;20236;-58
2021/10/19 00:35:25;;;;;;;13.45;11.60;;;;;;;;;;2090877;28;20244;-52
2021/10/19 00:36:25;;;;;;;15.50;12.40;;;;;;;;;;2088806;28;20258;-52
2021/10/19 00:37:26;;;;;;;13.90;12.18;;;;;;;;;;2094183;28;20179;-53
2021/10/19 00:38:26;;;;;;;14.77;12.18;;;;;;;;;;2092690;28;20189;-56
2021/10/19 00:39:26;;;;;;;15.65;13.02;;;;;;;;;;2097663;28;20214;-52
2021/10/19 00:40:27;;;;;;;16.75;13.13;;;;;;;;;;2082638;28;20194;-52
2021/10/19 00:41:29;;;;;;;13.85;12.45;;;;;;;;;;2081536;28;20172;-55
2021/10/19 00:42:29;;;;;;;15.38;13.77;;;;;;;;;;2092751;28;20193;-54
2021/10/19 00:43:29;;;;;;;17.63;12.45;;;;;;;;;;2090494;28;20199;-54
2021/10/19 00:44:29;;;;;;;13.98;12.52;;;;;;;;;;2089766;28;20187;-53
2021/10/19 00:45:29;;;;;;;14.30;12.85;;;;;;;;;;2091693;28;20175;-54
2021/10/19 00:46:30;;;;;;;14.18;12.32;;;;;;;;;;2080602;28;20196;-52
2021/10/19 00:47:30;;;;;;;17.50;13.95;;;;;;;;;;2083563;28;20203;-55
2021/10/19 00:48:32;;;;;;;15.57;12.85;;;;;;;;;;2087279;28;20675;-52
2021/10/19 00:49:32;;;;;;;16.45;13.35;;;;;;;;;;2086832;28;20209;-51
2021/10/19 00:50:33;;;;;;;16.52;12.98;;;;;;;;;;2088188;28;20663;-52
2021/10/19 00:51:34;;;;;;;15.02;13.00;;;;;;;;;;2087070;28;20179;-51
2021/10/19 00:52:34;;;;;;;16.25;12.70;;;;;;;;;;2080930;28;20190;-52
2021/10/19 00:53:34;;;;;;;15.02;13.23;;;;;;;;;;2086514;28;20190;-51
2021/10/19 00:54:34;;;;;;;15.07;12.95;;;;;;;;;;2087257;28;20263;-51
2021/10/19 00:55:35;;;;;;;18.65;14.10;;;;;;;;;;2093535;28;20659;-53
2021/10/19 00:56:38;;;;;;;16.45;13.25;;;;;;;;;;2086906;28;20192;-55
2021/10/19 00:57:39;;;;;;;17.55;13.02;;;;;;;;;;2095558;28;20167;-53
2021/10/19 00:58:40;;;;;;;15.55;13.15;;;;;;;;;;2084787;28;20192;-50
2021/10/19 00:59:42;;;;;;;15.43;13.25;;;;;;;;;;2082343;28;20269;-52
2021/10/19 01:00:42;;;;;;;15.30;13.18;;;;;;;;;;2084868;28;20168;-52
2021/10/19 01:01:42;;;;;;;14.90;13.13;;;;;;;;;;2088446;28;20533;-51
2021/10/19 01:02:43;;;;;;;15.32;13.75;;;;;;;;;;2096530;28;20178;-52
2021/10/19 01:03:44;;;;;;;14.65;13.13;;;;;;;;;;2089487;28;20187;-52
2021/10/19 01:04:44;;;;;;;15.43;13.38;;;;;;;;;;2096312;28;20263;-52
2021/10/19 01:05:44;;;;;;;16.73;13.57;;;;;;;;;;2096861;28;20600;-53
2021/10/19 01:06:45;;;;;;;15.15;13.15;;;;;;;;;;2088754;28;20176;-51
2021/10/19 01:07:45;;;;;;;15.30;12.65;;;;;;;;;;2086705;28;20625;-52
2021/10/19 01:08:46;;;;;;;14.35;12.77;;;;;;;;;;2080439;28;20192;-52
2021/10/19 01:09:46;;;;;;;16.45;13.10;;;;;;;;;;2080255;28;20204;-54
2021/10/19 01:10:48;;;;;;;14.93;13.02;;;;;;;;;;2093827;28;20187;-53
2021/10/19 01:11:49;;;;;;;15.48;13.77;;;;;;;;;;2085340;28;20592;-56
2021/10/19 01:12:49;;;;;;;14.45;12.95;;;;;;;;;;2088244;28;20191;-54
2021/10/19 01:13:49;;;;;;;14.43;12.07;;;;;;;;;;2078216;28;20244;-53
2021/10/19 01:14:50;;;;;;;15.27;13.63;;;;;;;;;;2095537;28;20309;-52
2021/10/19 01:15:50;;;;;;;14.20;12.77;;;;;;;;;;2086241;28;20187;-52
2021/10/19 01:16:50;;;;;;;14.07;12.65;;;;;;;;;;2087048;28;20164;-52
2021/10/19 01:17:51;;;;;;;17.63;12.90;;;;;;;;;;2097004;28;20187;-52
2021/10/19 01:18:51;;;;;;;13.98;12.32;;;;;;;;;;2086541;28;20255;-52
2021/10/19 01:19:52;;;;;;;13.77;12.32;;;;;;;;;;2097000;28;20195;-54
2021/10/19 01:20:52;;;;;;;14.63;13.02;;;;;;;;;;2089509;28;20187;-52
2021/10/19 01:21:54;;;;;;;15.68;12.88;;;;;;;;;;2092099;28;20194;-53
2021/10/19 01:22:55;;;;;;;16.10;12.43;;;;;;;;;;2091186;28;20573;-52
2021/10/19 01:23:55;;;;;;;14.80;13.20;;;;;;;;;;2097206;28;20174;-55
2021/10/19 01:24:56;;;;;;;15.95;13.07;;;;;;;;;;2077387;28;20192;-55
2021/10/19 01:25:56;;;;;;;18.60;13.52;;;;;;;;;;2087209;28;20207;-51
2021/10/19 01:26:56;;;;;;;14.70;12.75;;;;;;;;;;2089446;28;20542;-52
2021/10/19 01:27:58;;;;;;;13.65;12.40;;;;;;;;;;2096280;28;20723;-54
2021/10/19 01:28:59;;;;;;;16.13;13.65;;;;;;;;;;2090132;28;20199;-52
2021/10/19 01:29:59;;;;;;;14.25;12.73;;;;;;;;;;2096180;28;20167;-53
2021/10/19 01:31:00;;;;;;;15.32;13.20;;;;;;;;;;2087523;28;20211;-52
2021/10/19 01:32:01;;;;;;;14.98;13.35;;;;;;;;;;2095200;28;20247;-52
2021/10/19 01:33:01;;;;;;;14.73;13.25;;;;;;;;;;2088109;28;20832;-53
2021/10/19 01:34:01;;;;;;;14.73;13.13;;;;;;;;;;2081144;28;20352;-52
2021/10/19 01:35:02;;;;;;;15.43;13.50;;;;;;;;;;2080555;28;20263;-51
2021/10/19 01:36:02;;;;;;;14.93;12.50;;;;;;;;;;2091286;28;20175;-52
2021/10/19 01:37:05;;;;;;;14.60;13.10;;;;;;;;;;2086759;28;20219;-54
2021/10/19 01:38:07;;;;;;;14.52;12.75;;;;;;;;;;2092597;28;20218;-52
2021/10/19 01:39:07;;;;;;;14.88;13.38;;;;;;;;;;2090805;28;20182;-52
2021/10/19 01:40:15;;;;;;;14.80;12.05;;;;;;;;;;2093612;28;20190;-54
2021/10/19 01:41:15;;;;;;;16.17;13.43;;;;;;;;;;2095356;28;20168;-51
2021/10/19 01:42:15;;;;;;;17.25;13.18;;;;;;;;;;2092384;28;20616;-54
2021/10/19 01:43:18;;;;;;;17.10;13.60;;;;;;;;;;2094982;28;20199;-52
2021/10/19 01:44:18;;;;;;;14.23;12.73;;;;;;;;;;2092696;28;20228;-52
2021/10/19 01:45:18;;;;;;;14.93;13.32;;;;;;;;;;2085723;28;20637;-51
2021/10/19 01:46:18;;;;;;;17.73;13.35;;;;;;;;;;2084915;28;20199;-58
2021/10/19 01:47:19;;;;;;;15.40;12.93;;;;;;;;;;2086589;28;20228;-54
2021/10/19 01:48:19;;;;;;;13.38;11.95;;;;;;;;;;2090016;28;20172;-53
2021/10/19 01:49:20;;;;;;;14.88;12.73;;;;;;;;;;2090595;28;20211;-52
2021/10/19 01:50:20;;;;;;;14.43;12.13;;;;;;;;;;2089814;28;20167;-55
2021/10/19 01:51:20;;;;;;;14.48;12.55;;;;;;;;;;2090429;28;20163;-54
2021/10/19 01:52:20;;;;;;;13.23;11.90;;;;;;;;;;2091786;28;20178;-51
2021/10/19 01:53:21;;;;;;;14.55;12.27;;;;;;;;;;2090677;28;20213;-53
2021/10/19 01:54:21;;;;;;;14.25;12.73;;;;;;;;;;2087641;28;20203;-51
2021/10/19 01:55:22;;;;;;;13.93;12.50;;;;;;;;;;2089947;28;20655;-52
2021/10/19 01:56:22;;;;;;;13.77;12.27;;;;;;;;;;2090854;28;20234;-56
2021/10/19 01:57:23;;;;;;;16.38;13.32;;;;;;;;;;2090450;28;20202;-54
2021/10/19 01:58:24;;;;;;;14.20;12.85;;;;;;;;;;2096112;28;20159;-53
2021/10/19 01:59:25;;;;;;;16.67;13.48;;;;;;;;;;2093902;28;20597;-54
2021/10/19 02:00:25;;;;;;;16.58;13.75;;;;;;;;;;2082175;28;20168;-53
2021/10/19 02:01:25;;;;;;;15.65;13.23;;;;;;;;;;2081629;28;20262;-54
2021/10/19 02:02:26;;;;;;;14.50;13.00;;;;;;;;;;2095543;28;20175;-53
2021/10/19 02:03:27;;;;;;;14.15;12.65;;;;;;;;;;2092812;28;20175;-51
2021/10/19 02:04:27;;;;;;;15.40;13.13;;;;;;;;;;2086945;28;20220;-54
2021/10/19 02:05:27;;;;;;;14.95;13.00;;;;;;;;;;2083440;28;20184;-53
2021/10/19 02:06:28;;;;;;;16.48;14.05;;;;;;;;;;2095683;28;20191;-53
2021/10/19 02:07:28;;;;;;;15.52;12.68;;;;;;;;;;2088913;28;20191;-52
2021/10/19 02:08:28;;;;;;;17.05;13.73;;;;;;;;;;2086719;28;20183;-52
2021/10/19 02:09:28;;;;;;;13.90;12.50;;;;;;;;;;2083552;28;20204;-51
2021/10/19 02:10:29;;;;;;;14.55;13.05;;;;;;;;;;2094116;28;20182;-52
2021/10/19 02:11:30;;;;;;;15.63;14.00;;;;;;;;;;2080916;28;20323;-51
2021/10/19 02:12:30;;;;;;;14.95;12.82;;;;;;;;;;2079203;28;20283;-50
2021/10/19 02:13:30;;;;;;;16.92;13.35;;;;;;;;;;2083816;28;20226;-52
2021/10/19 02:14:30;;;;;;;17.20;12.73;;;;;;;;;;2090489;28;20176;-53
2021/10/19 02:15:32;;;;;;;15.32;12.77;;;;;;;;;;2090193;28;20175;-53
2021/10/19 02:16:32;;;;;;;15.23;12.57;;;;;;;;;;2088318;28;20545;-55
2021/10/19 02:17:33;;;;;;;14.52;13.02;;;;;;;;;;2094500;28;20258;-52
2021/10/19 02:18:33;;;;;;;16.30;13.07;;;;;;;;;;2091171;28;20171;-52
2021/10/19 02:19:34;;;;;;;14.75;13.30;;;;;;;;;;2083464;28;20254;-52
2021/10/19 02:20:35;;;;;;;15.75;12.70;;;;;;;;;;2087552;28;20222;-51
2021/10/19 02:21:35;;;;;;;13.55;12.13;;;;;;;;;;2091228;28;20317;-52
2021/10/19 02:22:35;;;;;;;14.30;12.65;;;;;;;;;;2091042;28;20183;-51
2021/10/19 02:23:36;;;;;;;14.43;12.57;;;;;;;;;;2082030;28;20253;-51
2021/10/19 02:24:36;;;;;;;15.18;13.57;;;;;;;;;;2080317;28;20188;-53
2021/10/19 02:25:37;;;;;;;17.33;13.77;;;;;;;;;;2087963;28;20446;-55
2021/10/19 02:26:37;;;;;;;14.73;12.50;;;;;;;;;;2082029;28;20230;-54
2021/10/19 02:27:37;;;;;;;14.27;12.77;;;;;;;;;;2093229;28;20639;-54
2021/10/19 02:28:38;;;;;;;16.17;12.60;;;;;;;;;;2089845;28;20305;-56
2021/10/19 02:29:38;;;;;;;15.18;13.52;;;;;;;;;;2092534;28;20285;-50
2021/10/19 02:30:38;;;;;;;14.75;13.00;;;;;;;;;;2089179;28;20207;-52
2021/10/19 02:31:38;;;;;;;13.77;12.30;;;;;;;;;;2093619;28;20221;-52
2021/10/19 02:32:39;;;;;;;15.75;13.85;;;;;;;;;;2090600;28;20185;-53
2021/10/19 02:33:39;;;;;;;13.85;12.45;;;;;;;;;;2096296;28;20221;-53
2021/10/19 02:34:40;;;;;;;16.45;13.85;;;;;;;;;;2090744;28;20220;-52
2021/10/19 02:35:40;;;;;;;15.32;13.68;;;;;;;;;;2090900;28;20226;-55
2021/10/19 02:36:40;;;;;;;14.82;13.20;;;;;;;;;;2089699;28;20186;-55
2021/10/19 02:37:42;;;;;;;14.73;13.15;;;;;;;;;;2093052;28;20183;-53
2021/10/19 02:38:42;;;;;;;14.57;13.00;;;;;;;;;;2081249;28;20820;-53
2021/10/19 02:39:42;;;;;;;14.80;13.00;;;;;;;;;;2084653;28;20192;-53
2021/10/19 02:40:43;;;;;;;15.23;13.73;;;;;;;;;;2089965;28;20190;-52
2021/10/19 02:41:43;;;;;;;14.40;12.65;;;;;;;;;;2090907;28;20171;-52
2021/10/19 02:42:43;;;;;;;13.98;12.48;;;;;;;;;;2082802;28;20170;-52
2021/10/19 02:43:44;;;;;;;14.65;13.10;;;;;;;;;;2082300;28;20187;-51
2021/10/19 02:44:44;;;;;;;18.27;13.35;;;;;;;;;;2093049;28;20172;-56
2021/10/19 02:45:44;;;;;;;15.75;13.05;;;;;;;;;;2095337;28;20183;-56
2021/10/19 02:46:44;;;;;;;15.70;12.85;;;;;;;;;;2086502;28;20205;-55
2021/10/19 02:47:45;;;;;;;14.05;12.55;;;;;;;;;;2090649;28;20225;-57
2021/10/19 02:48:45;;;;;;;16.20;13.13;;;;;;;;;;2098299;28;20181;-54
2021/10/19 02:49:45;;;;;;;15.13;13.57;;;;;;;;;;2096512;28;20190;-55
2021/10/19 02:50:45;;;;;;;14.32;12.82;;;;;;;;;;2083496;28;20168;-56
2021/10/19 02:51:46;;;;;;;13.65;12.32;;;;;;;;;;2097530;28;20193;-55
2021/10/19 02:52:46;;;;;;;14.93;12.70;;;;;;;;;;2100443;28;20253;-56
2021/10/19 02:53:46;;;;;;;15.95;12.65;;;;;;;;;;2086262;28;20607;-55
2021/10/19 02:54:49;;;;;;;13.80;12.50;;;;;;;;;;2092559;28;21049;-56
2021/10/19 02:55:49;;;;;;;15.10;12.65;;;;;;;;;;2084786;28;20180;-53
2021/10/19 02:56:49;;;;;;;14.90;13.27;;;;;;;;;;2086312;28;20176;-55
2021/10/19 02:57:49;;;;;;;13.70;12.30;;;;;;;;;;2096904;28;20172;-53
2021/10/19 02:58:50;;;;;;;18.20;12.75;;;;;;;;;;2099897;28;20174;-54
2021/10/19 02:59:50;;;;;;;15.52;12.88;;;;;;;;;;2085983;28;20224;-54
2021/10/19 03:00:51;;;;;;;13.93;12.63;;;;;;;;;;2088991;28;20181;-54
2021/10/19 03:01:51;;;;;;;15.30;13.25;;;;;;;;;;2084641;28;20195;-52
2021/10/19 03:02:52;;;;;;;14.75;13.27;;;;;;;;;;2098766;28;20206;-51
2021/10/19 03:03:52;;;;;;;14.98;13.13;;;;;;;;;;2093426;28;20183;-54
2021/10/19 03:04:52;;;;;;;15.70;13.55;;;;;;;;;;2098887;28;20171;-55
2021/10/19 03:05:52;;;;;;;13.75;12.35;;;;;;;;;;2090662;28;20181;-54
2021/10/19 03:06:53;;;;;;;17.80;13.48;;;;;;;;;;2099458;28;20806;-50
2021/10/19 03:07:53;;;;;;;14.35;12.88;;;;;;;;;;2086931;28;20179;-50
2021/10/19 03:08:54;;;;;;;14.25;12.18;;;;;;;;;;2100397;28;20167;-52
2021/10/19 03:09:54;;;;;;;16.25;13.20;;;;;;;;;;2087284;28;20222;-50
2021/10/19 03:10:54;;;;;;;15.02;13.43;;;;;;;;;;2097989;28;20174;-52
2021/10/19 03:11:55;;;;;;;15.13;12.73;;;;;;;;;;2086010;28;20184;-52
2021/10/19 03:12:55;;;;;;;14.90;12.75;;;;;;;;;;2100566;28;20163;-55
2021/10/19 03:13:55;;;;;;;14.25;12.75;;;;;;;;;;2086126;28;20175;-55
2021/10/19 03:14:56;;;;;;;14.65;12.45;;;;;;;;;;2093313;28;20180;-50
2021/10/19 03:15:56;;;;;;;15.02;12.82;;;;;;;;;;2081361;28;20200;-53
2021/10/19 03:16:56;;;;;;;15.18;12.85;;;;;;;;;;2101741;28;20171;-52
2021/10/19 03:17:56;;;;;;;14.13;12.73;;;;;;;;;;2101697;28;20237;-51
2021/10/19 03:18:57;;;;;;;14.90;12.70;;;;;;;;;;2095373;28;20171;-54
2021/10/19 03:19:57;;;;;;;13.75;12.35;;;;;;;;;;2102689;28;20209;-51
2021/10/19 03:20:57;;;;;;;15.00;13.00;;;;;;;;;;2095748;28;20199;-51
2021/10/19 03:21:58;;;;;;;13.90;12.30;;;;;;;;;;2102299;28;20171;-50
2021/10/19 03:22:58;;;;;;;14.30;12.65;;;;;;;;;;2094363;28;20188;-50
2021/10/19 03:23:58;;;;;;;13.77;12.43;;;;;;;;;;2101603;28;20174;-53
2021/10/19 03:24:59;;;;;;;15.07;12.95;;;;;;;;;;2096946;28;20648;-52
2021/10/19 03:25:59;;;;;;;13.63;12.10;;;;;;;;;;2101245;28;20234;-55
2021/10/19 03:26:59;;;;;;;14.68;11.63;;;;;;;;;;2093201;28;20609;-54
2021/10/19 03:27:59;;;;;;;15.65;12.52;;;;;;;;;;2097027;28;20632;-53
2021/10/19 03:28:59;;;;;;;15.55;12.93;;;;;;;;;;2097689;28;20172;-51
2021/10/19 03:30:00;;;;;;;16.02;12.13;;;;;;;;;;2102386;28;20174;-51
2021/10/19 03:31:00;;;;;;;14.25;12.55;;;;;;;;;;2093847;28;20669;-53
2021/10/19 03:32:00;;;;;;;13.68;12.27;;;;;;;;;;2090981;28;20176;-50
2021/10/19 03:33:01;;;;;;;13.48;12.07;;;;;;;;;;2075031;28;20220;-52
2021/10/19 03:34:03;;;;;;;14.80;13.30;;;;;;;;;;2079209;28;20161;-55
2021/10/19 03:35:03;;;;;;;14.13;12.10;;;;;;;;;;2089894;28;20258;-54
2021/10/19 03:36:05;;;;;;;16.40;12.75;;;;;;;;;;2088056;28;20183;-52
2021/10/19 03:37:06;;;;;;;13.95;12.55;;;;;;;;;;2080444;28;20161;-53
2021/10/19 03:38:06;;;;;;;14.68;12.75;;;;;;;;;;2088919;28;20199;-55
2021/10/19 03:39:06;;;;;;;15.02;12.18;;;;;;;;;;2090898;28;20237;-51
2021/10/19 03:40:07;;;;;;;15.02;12.55;;;;;;;;;;2095437;28;20194;-52
2021/10/19 03:41:07;;;;;;;13.10;11.80;;;;;;;;;;2092084;28;20187;-52
2021/10/19 03:42:08;;;;;;;14.02;12.02;;;;;;;;;;2095184;28;20171;-55
2021/10/19 03:43:08;;;;;;;14.05;12.00;;;;;;;;;;2084319;28;20591;-55
2021/10/19 03:44:08;;;;;;;14.57;12.45;;;;;;;;;;2085892;28;20180;-54
2021/10/19 03:45:10;;;;;;;13.00;11.63;;;;;;;;;;2087811;28;20197;-56
2021/10/19 03:46:10;;;;;;;13.77;12.38;;;;;;;;;;2093777;28;20322;-55
2021/10/19 03:47:10;;;;;;;14.93;12.05;;;;;;;;;;2088345;28;20171;-55
2021/10/19 03:48:10;;;;;;;13.93;12.48;;;;;;;;;;2093353;28;20179;-55
2021/10/19 03:49:11;;;;;;;14.38;12.88;;;;;;;;;;2088216;28;20198;-54
2021/10/19 03:50:12;;;;;;;13.88;12.35;;;;;;;;;;2092162;28;20168;-51
2021/10/19 03:51:12;;;;;;;14.30;12.68;;;;;;;;;;2088551;28;20159;-54
2021/10/19 03:52:12;;;;;;;13.88;12.48;;;;;;;;;;2092031;28;20525;-55
2021/10/19 03:53:13;;;;;;;15.32;12.45;;;;;;;;;;2089153;28;20224;-55
2021/10/19 03:54:13;;;;;;;13.02;11.65;;;;;;;;;;2090932;28;20595;-55
2021/10/19 03:55:14;;;;;;;13.48;12.07;;;;;;;;;;2088966;28;20171;-55
2021/10/19 03:56:14;;;;;;;14.82;12.18;;;;;;;;;;2087587;28;20238;-52
2021/10/19 03:57:14;;;;;;;14.10;12.60;;;;;;;;;;2079896;28;20280;-53
2021/10/19 03:58:15;;;;;;;16.85;12.32;;;;;;;;;;2086597;28;20175;-55
2021/10/19 03:59:15;;;;;;;14.27;12.20;;;;;;;;;;2096982;28;20190;-52
2021/10/19 04:00:15;;;;;;;13.80;12.40;;;;;;;;;;2086829;28;20265;-50
2021/10/19 04:01:16;;;;;;;13.38;12.00;;;;;;;;;;2088820;28;20529;-52
2021/10/19 04:02:16;;;;;;;14.40;12.38;;;;;;;;;;2082823;28;20176;-53
2021/10/19 04:03:16;;;;;;;14.25;12.32;;;;;;;;;;2076831;28;20179;-55
2021/10/19 04:04:19;;;;;;;14.50;12.02;;;;;;;;;;2085130;28;20270;-54
2021/10/19 04:05:19;;;;;;;14.43;12.15;;;;;;;;;;2089892;28;20251;-53
2021/10/19 04:06:19;;;;;;;14.23;12.75;;;;;;;;;;2087393;28;20261;-56
2021/10/19 04:07:19;;;;;;;14.05;12.23;;;;;;;;;;2093702;28;20174;-52
2021/10/19 04:08:20;;;;;;;13.13;11.82;;;;;;;;;;2077412;28;20183;-54
2021/10/19 04:09:20;;;;;;;13.25;11.82;;;;;;;;;;2077143;28;20220;-55
2021/10/19 04:10:22;;;;;;;13.55;12.05;;;;;;;;;;2080764;28;20337;-52
2021/10/19 04:11:23;;;;;;;17.90;11.93;;;;;;;;;;2083236;28;20184;-54
2021/10/19 04:12:23;;;;;;;13.70;12.02;;;;;;;;;;2084964;28;20202;-51
2021/10/19 04:13:23;;;;;;;13.35;11.88;;;;;;;;;;2083800;28;20168;-53
2021/10/19 04:14:23;;;;;;;15.85;13.15;;;;;;;;;;2094785;28;20651;-55
2021/10/19 04:15:24;;;;;;;13.82;11.82;;;;;;;;;;2090851;28;20169;-54
2021/10/19 04:16:24;;;;;;;13.32;11.95;;;;;;;;;;2091235;28;20183;-53
2021/10/19 04:17:24;;;;;;;13.80;12.38;;;;;;;;;;2096759;28;20175;-55
2021/10/19 04:18:25;;;;;;;13.30;11.90;;;;;;;;;;2083202;28;20176;-54
2021/10/19 04:19:25;;;;;;;12.73;11.52;;;;;;;;;;2079584;28;20270;-54
2021/10/19 04:20:25;;;;;;;14.10;12.07;;;;;;;;;;2087960;28;20631;-51
2021/10/19 04:21:25;;;;;;;13.00;11.65;;;;;;;;;;2086113;28;20171;-53
2021/10/19 04:22:26;;;;;;;13.60;12.18;;;;;;;;;;2083620;28;20180;-53
2021/10/19 04:23:26;;;;;;;13.65;12.27;;;;;;;;;;2092395;28;20224;-54
2021/10/19 04:24:26;;;;;;;13.32;11.63;;;;;;;;;;2091861;28;20202;-53
2021/10/19 04:25:26;;;;;;;13.02;11.73;;;;;;;;;;2095025;28;20198;-52
2021/10/19 04:26:27;;;;;;;12.75;11.45;;;;;;;;;;2090640;28;20290;-54
2021/10/19 04:27:27;;;;;;;14.23;12.75;;;;;;;;;;2086388;28;20182;-55
2021/10/19 04:28:27;;;;;;;14.77;11.98;;;;;;;;;;2085567;28;20168;-55
2021/10/19 04:29:28;;;;;;;15.30;12.90;;;;;;;;;;2086834;28;20198;-53
2021/10/19 04:30:28;;;;;;;15.13;12.88;;;;;;;;;;2088199;28;20180;-54
2021/10/19 04:31:29;;;;;;;13.15;11.85;;;;;;;;;;2088881;28;20234;-54
2021/10/19 04:32:30;;;;;;;13.55;12.10;;;;;;;;;;2087102;28;20199;-52
2021/10/19 04:33:30;;;;;;;13.90;12.35;;;;;;;;;;2093165;28;20699;-56
2021/10/19 04:34:30;;;;;;;13.23;11.82;;;;;;;;;;2095354;28;20647;-55
2021/10/19 04:35:30;;;;;;;13.50;12.10;;;;;;;;;;2094952;28;20211;-52
2021/10/19 04:36:31;;;;;;;13.80;12.30;;;;;;;;;;2095588;28;20549;-52
2021/10/19 04:37:32;;;;;;;14.00;12.48;;;;;;;;;;2088285;28;20163;-52
2021/10/19 04:38:34;;;;;;;13.57;11.77;;;;;;;;;;2074895;28;20188;-51
2021/10/19 04:39:35;;;;;;;13.98;12.00;;;;;;;;;;2079439;28;20628;-52
2021/10/19 04:40:36;;;;;;;13.05;11.73;;;;;;;;;;2080693;28;20218;-52
2021/10/19 04:41:43;;;;;;;14.90;12.98;;;;;;;;;;2074348;28;20204;-55
2021/10/19 04:42:44;;;;;;;15.68;12.68;;;;;;;;;;2088978;28;20620;-52
2021/10/19 04:43:45;;;;;;;13.52;12.13;;;;;;;;;;2080722;28;20216;-53
2021/10/19 04:44:48;;;;;;;14.57;12.90;;;;;;;;;;2080031;28;20175;-56
2021/10/19 04:45:48;;;;;;;14.65;12.55;;;;;;;;;;2080761;28;20588;-53
2021/10/19 04:46:48;;;;;;;14.02;12.27;;;;;;;;;;2081616;28;20211;-55
2021/10/19 04:47:49;;;;;;;14.20;11.90;;;;;;;;;;2080898;28;20167;-52
2021/10/19 04:48:49;;;;;;;15.88;12.43;;;;;;;;;;2080911;28;20180;-57
2021/10/19 04:49:50;;;;;;;14.52;13.00;;;;;;;;;;2089706;28;20191;-52
2021/10/19 04:50:50;;;;;;;13.18;11.77;;;;;;;;;;2079711;28;20525;-55
2021/10/19 04:51:50;;;;;;;15.52;13.13;;;;;;;;;;2072942;28;20173;-52
2021/10/19 04:52:51;;;;;;;13.90;12.27;;;;;;;;;;2072861;28;20600;-50
2021/10/19 04:53:51;;;;;;;15.60;13.15;;;;;;;;;;2073651;28;20200;-54
2021/10/19 04:54:51;;;;;;;13.70;12.30;;;;;;;;;;2087585;28;20176;-53
2021/10/19 04:55:52;;;;;;;14.15;12.25;;;;;;;;;;2078496;28;20211;-53
2021/10/19 04:56:52;;;;;;;15.32;12.25;;;;;;;;;;2077223;28;20177;-55
2021/10/19 04:57:52;;;;;;;15.27;12.07;;;;;;;;;;2087093;28;20229;-56
2021/10/19 04:58:52;;;;;;;16.55;13.63;;;;;;;;;;2089902;28;20164;-55
2021/10/19 04:59:53;;;;;;;15.02;12.70;;;;;;;;;;2085510;28;20199;-56
2021/10/19 05:00:53;;;;;;;15.65;13.98;;;;;;;;;;2083333;28;20222;-56
2021/10/19 05:01:53;;;;;;;16.13;12.90;;;;;;;;;;2092684;28;20187;-55
2021/10/19 05:02:55;;;;;;;16.05;12.85;;;;;;;;;;2095085;28;20235;-55
2021/10/19 05:03:55;;;;;;;14.52;13.05;;;;;;;;;;2095526;28;20184;-54
2021/10/19 05:04:55;;;;;;;15.15;12.38;;;;;;;;;;2096326;28;20160;-56
2021/10/19 05:05:56;;;;;;;14.82;13.45;;;;;;;;;;2094892;28;20172;-58
2021/10/19 05:06:56;;;;;;;13.98;12.45;;;;;;;;;;2095563;28;20303;-55
2021/10/19 05:07:56;;;;;;;14.55;13.05;;;;;;;;;;2095370;28;20536;-55
2021/10/19 05:08:57;;;;;;;13.80;12.20;;;;;;;;;;2091771;28;20175;-55
2021/10/19 05:09:57;;;;;;;14.27;12.80;;;;;;;;;;2082763;28;20202;-55
2021/10/19 05:10:58;;;;;;;14.57;13.07;;;;;;;;;;2083362;28;20164;-55
2021/10/19 05:11:58;;;;;;;14.18;12.40;;;;;;;;;;2092013;28;20199;-55
2021/10/19 05:12:58;;;;;;;14.75;12.40;;;;;;;;;;2092439;28;20223;-55
2021/10/19 05:13:58;;;;;;;14.65;13.25;;;;;;;;;;2092538;28;20233;-55
2021/10/19 05:14:59;;;;;;;15.73;14.02;;;;;;;;;;2083777;28;20188;-51
2021/10/19 05:15:59;;;;;;;15.38;12.50;;;;;;;;;;2080945;28;20180;-53
2021/10/19 05:16:59;;;;;;;15.40;12.98;;;;;;;;;;2079639;28;20215;-52
2021/10/19 05:18:00;;;;;;;15.38;13.23;;;;;;;;;;2084918;28;20179;-53
2021/10/19 05:19:00;;;;;;;15.18;12.63;;;;;;;;;;2089480;28;20176;-51
2021/10/19 05:20:01;;;;;;;18.25;13.25;;;;;;;;;;2088838;28;20186;-51
2021/10/19 05:21:01;;;;;;;16.30;12.45;;;;;;;;;;2084549;28;20206;-52
2021/10/19 05:22:02;;;;;;;13.93;12.52;;;;;;;;;;2087897;28;20187;-52
2021/10/19 05:23:02;;;;;;;13.70;12.15;;;;;;;;;;2085534;28;20183;-54
2021/10/19 05:24:02;;;;;;;14.23;12.75;;;;;;;;;;2089097;28;20199;-54
2021/10/19 05:25:03;;;;;;;13.80;12.43;;;;;;;;;;2087164;28;20203;-52
2021/10/19 05:26:03;;;;;;;15.05;13.38;;;;;;;;;;2079644;28;20191;-52
2021/10/19 05:27:04;;;;;;;15.25;12.85;;;;;;;;;;2080731;28;20218;-51
2021/10/19 05:28:04;;;;;;;14.88;12.57;;;;;;;;;;2080774;28;20174;-50
2021/10/19 05:29:04;;;;;;;13.98;12.57;;;;;;;;;;2080518;28;20617;-54
2021/10/19 05:30:08;;;;;;;15.15;12.55;;;;;;;;;;2079002;28;20182;-51
2021/10/19 05:31:08;;;;;;;14.00;12.60;;;;;;;;;;2078224;28;20183;-51
2021/10/19 05:32:08;;;;;;;12.95;11.63;;;;;;;;;;2092309;28;20179;-54
2021/10/19 05:33:09;;;;;;;14.30;12.82;;;;;;;;;;2094395;28;20194;-52
2021/10/19 05:34:09;;;;;;;15.13;13.52;;;;;;;;;;2089153;28;20760;-50
2021/10/19 05:35:09;;;;;;;15.13;13.32;;;;;;;;;;2080136;28;20196;-50
2021/10/19 05:36:10;;;;;;;14.77;13.30;;;;;;;;;;2080742;28;20212;-51
2021/10/19 05:37:10;;;;;;;15.65;13.27;;;;;;;;;;2089453;28;20632;-51
2021/10/19 05:38:10;;;;;;;14.43;12.32;;;;;;;;;;2088846;28;20666;-52
2021/10/19 05:39:11;;;;;;;13.55;12.18;;;;;;;;;;2079936;28;20199;-53
2021/10/19 05:40:11;;;;;;;13.32;11.93;;;;;;;;;;2079955;28;20247;-51
2021/10/19 05:41:11;;;;;;;12.93;11.65;;;;;;;;;;2086255;28;20186;-51
2021/10/19 05:42:13;;;;;;;13.90;12.40;;;;;;;;;;2084150;28;20191;-54
2021/10/19 05:43:13;;;;;;;15.07;12.40;;;;;;;;;;2086946;28;20722;-53
2021/10/19 05:44:14;;;;;;;15.85;12.85;;;;;;;;;;2088938;28;20207;-50
2021/10/19 05:45:14;;;;;;;13.93;12.48;;;;;;;;;;2089036;28;20262;-51
2021/10/19 05:46:15;;;;;;;15.52;13.05;;;;;;;;;;2088720;28;20261;-53
2021/10/19 05:47:15;;;;;;;13.95;12.52;;;;;;;;;;2089347;28;20167;-51
2021/10/19 05:48:16;;;;;;;14.68;13.18;;;;;;;;;;2088967;28;20164;-53
2021/10/19 05:49:16;;;;;;;13.70;11.88;;;;;;;;;;2088905;28;20695;-51
2021/10/19 05:50:17;;;;;;;14.50;12.90;;;;;;;;;;2088075;28;20184;-49
2021/10/19 05:51:17;;;;;;;14.38;12.15;;;;;;;;;;2088822;28;20168;-53